Oakville, CA (94562)

6:08 AM PDT on August 04, 2015 (GMT -0700)
KCAOAKVI6 | | Change Station
CLOSE
Current Station
Personal Weather Station
Location: Oakville, CA
Elevation: 190 ft
Nearby Weather Stations

Elev 190 ft 38.41 °N, 122.39 °W | Updated 6 minutes ago

Mostly Cloudy
Mostly Cloudy
50.5 °F
Feels Like 50.5 °F
N
0.0
Wind Variable Wind from North
Gusts 0.0 mph

Today
High -- | Low -- °F
--% Chance of Precip.
Yesterday
High -- | Low -- °F
Precip. -- in
6:14 AM 8:16 PM
Waning Gibbous, 78% visible
Pressure 29.98 in
Visibility 10.0 miles
Clouds Overcast 2100 ft
Dew Point 48 °F
Humidity 91%
Rainfall 0.00 in
Snow Depth Not available.
UV 0.0 out of 12
Pollen 6.10 out of 12
Air Quality Not available.
Flu Activity Not available.
METAR KO69 041255Z AUTO 33004KT 10SM OVC021 14/13 A2998 RMK AO1

More Conditions Fewer Conditions

Pressure 29.98 in
Visibility 10.0 miles
Clouds Overcast 2100 ft
Dew Point 48 °F
Humidity 91%
Rainfall 0.00 in
Snow Depth Not available.
UV 0.0 out of 12
Pollen 6.10 out of 12
Air Quality Not available.
Flu Activity Not available.
METAR KO69 041255Z AUTO 33004KT 10SM OVC021 14/13 A2998 RMK AO1

More Conditions Fewer Conditions

10-Day Weather Forecast

×

Almanac

Astronomy

Aug. 04, 2015 Rise Set
Actual Time
Civil Twilight
Nautical Twilight
Astronomical Twilight
Moon
Length of Visible Light
Length of Day
Tomorrow will be .
, % of the Moon is Illuminated

Today's Extremes

State Highs State Lows

Community

WunderPhotos

Upload Photos

1,843,914 photos uploaded!

WunderBlogs® & News

Nearby

Air Quality

  Air Quality AQ Index Pollutant
Not available.

Snow Depth

Station Depth Elevation

Earthquake Activity

City Distance Mag. Time & Date
Minimum magnitude displayed is 2.5.

Coastal Water Temperatures

Place Temperature

Stations

Nearby Weather Stations

Station Location Temp. Windchill Dew Point Humidity Wind Precip. Elev Updated Type